createdAt,value
2018-05-24T00:00:05.320Z,981.45
2018-05-24T00:01:05.990Z,981.59
2018-05-24T00:02:05.393Z,981.40
2018-05-24T00:03:05.153Z,981.56
2018-05-24T00:04:06.382Z,981.45
2018-05-24T00:05:05.190Z,981.48
2018-05-24T00:06:05.116Z,981.48
2018-05-24T00:07:05.903Z,981.51
2018-05-24T00:08:05.631Z,981.70
2018-05-24T00:09:05.189Z,981.54
2018-05-24T00:10:05.600Z,981.54
2018-05-24T00:11:05.407Z,981.54
2018-05-24T00:12:10.984Z,981.46
2018-05-24T00:13:05.925Z,981.56
2018-05-24T00:14:05.673Z,981.56
2018-05-24T00:15:05.377Z,981.54
2018-05-24T00:16:05.999Z,981.46
2018-05-24T00:17:05.962Z,981.56
2018-05-24T00:18:05.956Z,981.56
2018-05-24T00:19:05.947Z,981.62
2018-05-24T00:20:05.521Z,981.62
2018-05-24T00:21:05.135Z,981.59
2018-05-24T00:22:05.346Z,981.56
2018-05-24T00:23:05.957Z,981.56
2018-05-24T00:24:05.297Z,981.51
2018-05-24T00:25:05.994Z,981.56
2018-05-24T00:26:05.453Z,981.59
2018-05-24T00:27:05.026Z,981.51
2018-05-24T00:28:05.824Z,981.51
2018-05-24T00:29:05.146Z,981.62
2018-05-24T00:30:05.927Z,981.45
2018-05-24T00:31:06.008Z,981.45
2018-05-24T00:32:05.591Z,981.43
2018-05-24T00:33:05.860Z,981.45
2018-05-24T00:34:05.359Z,981.51
2018-05-24T00:35:05.147Z,981.37
2018-05-24T00:36:05.215Z,981.40
2018-05-24T00:37:05.692Z,981.37
2018-05-24T00:38:05.055Z,981.43
2018-05-24T00:39:05.268Z,981.45
2018-05-24T00:40:05.479Z,981.40
2018-05-24T00:41:05.275Z,981.43
2018-05-24T00:42:05.465Z,981.31
2018-05-24T00:43:06.015Z,981.34
2018-05-24T00:44:04.984Z,981.22
2018-05-24T00:45:04.976Z,981.14
2018-05-24T00:46:05.269Z,981.11
2018-05-24T00:47:06.042Z,981.22
2018-05-24T00:48:05.190Z,981.20
2018-05-24T00:49:05.877Z,981.25
2018-05-24T00:50:05.622Z,981.20
2018-05-24T00:51:05.194Z,981.20
2018-05-24T00:52:06.000Z,981.23
2018-05-24T00:53:05.814Z,981.31
2018-05-24T00:54:05.876Z,981.23
2018-05-24T00:55:05.426Z,981.25
2018-05-24T00:56:05.149Z,981.37
2018-05-24T00:57:05.308Z,981.28
2018-05-24T00:58:05.090Z,981.28
2018-05-24T00:59:05.204Z,981.23
2018-05-24T01:00:05.256Z,981.17
2018-05-24T01:01:05.838Z,981.14
2018-05-24T01:02:05.532Z,981.26
2018-05-24T01:03:05.624Z,981.14
2018-05-24T01:04:05.189Z,981.20
2018-05-24T01:05:06.015Z,981.26
2018-05-24T01:06:06.120Z,981.23
2018-05-24T01:07:06.151Z,981.23
2018-05-24T01:08:05.604Z,981.15
2018-05-24T01:09:05.834Z,981.09
2018-05-24T01:10:05.683Z,981.20
2018-05-24T01:11:05.835Z,981.03
2018-05-24T01:12:05.040Z,981.03
2018-05-24T01:13:05.597Z,981.00
2018-05-24T01:14:06.043Z,981.09
2018-05-24T01:15:04.953Z,981.09
2018-05-24T01:16:05.963Z,981.15
2018-05-24T01:17:05.985Z,981.04
2018-05-24T01:18:06.102Z,981.04
2018-05-24T01:19:05.071Z,980.95
2018-05-24T01:20:05.570Z,981.12
2018-05-24T01:21:05.495Z,981.09
2018-05-24T01:22:05.157Z,981.07
2018-05-24T01:23:10.650Z,981.01
2018-05-24T01:24:05.454Z,981.07
2018-05-24T01:25:05.853Z,981.07
2018-05-24T01:26:05.960Z,980.98
2018-05-24T01:27:05.240Z,981.09
2018-05-24T01:28:05.425Z,981.04
2018-05-24T01:29:05.992Z,981.01
2018-05-24T01:30:05.259Z,980.89
2018-05-24T01:31:06.148Z,980.98
2018-05-24T01:32:05.472Z,980.98
2018-05-24T01:33:05.772Z,981.04
2018-05-24T01:34:05.475Z,981.04
2018-05-24T01:35:05.755Z,980.98
2018-05-24T01:36:05.386Z,981.07
2018-05-24T01:37:05.262Z,981.12
2018-05-24T01:38:05.922Z,981.12
2018-05-24T01:39:05.352Z,980.95
2018-05-24T01:40:05.177Z,981.15
2018-05-24T01:41:05.619Z,980.98
2018-05-24T01:42:05.227Z,981.04
2018-05-24T01:43:05.978Z,980.92
2018-05-24T01:44:06.001Z,980.98
2018-05-24T01:45:05.302Z,981.01
2018-05-24T01:46:05.156Z,980.98
2018-05-24T01:47:05.753Z,980.95
2018-05-24T01:48:05.721Z,981.04
2018-05-24T01:49:05.527Z,981.10
2018-05-24T01:50:05.163Z,981.04
2018-05-24T01:51:04.990Z,980.98
2018-05-24T01:52:05.249Z,980.95
2018-05-24T01:53:05.389Z,980.92
2018-05-24T01:54:05.571Z,980.92
2018-05-24T01:55:05.474Z,981.04
2018-05-24T01:56:05.481Z,980.89
2018-05-24T01:57:05.605Z,981.01
2018-05-24T01:58:05.722Z,980.92
2018-05-24T01:59:06.042Z,981.04
2018-05-24T02:00:05.716Z,981.07
2018-05-24T02:01:05.277Z,980.98
2018-05-24T02:02:05.032Z,980.87
2018-05-24T02:03:05.079Z,981.04
2018-05-24T02:04:05.439Z,981.04
2018-05-24T02:05:05.585Z,980.98
2018-05-24T02:06:05.514Z,981.10
2018-05-24T02:07:04.929Z,981.10
2018-05-24T02:08:05.670Z,980.98
2018-05-24T02:09:05.164Z,981.07
2018-05-24T02:10:05.257Z,981.18
2018-05-24T02:11:05.415Z,980.98
2018-05-24T02:12:05.496Z,981.10
2018-05-24T02:13:05.201Z,981.04
2018-05-24T02:14:05.170Z,981.04
2018-05-24T02:15:06.364Z,981.15
2018-05-24T02:16:05.589Z,981.15
2018-05-24T02:17:05.933Z,981.07
2018-05-24T02:18:04.999Z,981.10
2018-05-24T02:19:05.700Z,981.12
2018-05-24T02:20:05.463Z,981.04
2018-05-24T02:21:05.459Z,980.98
2018-05-24T02:22:05.623Z,981.01
2018-05-24T02:23:05.377Z,980.95
2018-05-24T02:24:05.533Z,980.81
2018-05-24T02:25:05.723Z,980.86
2018-05-24T02:26:05.666Z,980.86
2018-05-24T02:27:05.540Z,980.86
2018-05-24T02:28:05.726Z,980.75
2018-05-24T02:29:05.780Z,980.75
2018-05-24T02:30:05.881Z,980.69
2018-05-24T02:31:05.812Z,980.66
2018-05-24T02:32:06.103Z,980.78
2018-05-24T02:33:05.871Z,980.72
2018-05-24T02:34:06.136Z,980.81
2018-05-24T02:35:05.295Z,980.92
2018-05-24T02:36:05.964Z,980.83
2018-05-24T02:37:05.904Z,980.89
2018-05-24T02:38:05.907Z,980.86
2018-05-24T02:39:05.118Z,980.89
2018-05-24T02:40:05.231Z,980.98
2018-05-24T02:41:06.094Z,980.95
2018-05-24T02:42:05.812Z,980.89
2018-05-24T02:43:05.835Z,980.92
2018-05-24T02:44:05.932Z,980.89
2018-05-24T02:45:05.653Z,980.86
2018-05-24T02:46:06.093Z,980.92
2018-05-24T02:47:05.099Z,980.83
2018-05-24T02:48:05.918Z,980.92
2018-05-24T02:49:05.488Z,980.75
2018-05-24T02:50:05.281Z,980.86
2018-05-24T02:51:05.177Z,980.92
2018-05-24T02:52:05.783Z,980.98
2018-05-24T02:53:05.932Z,980.95
2018-05-24T02:54:05.879Z,980.92
2018-05-24T02:55:05.784Z,980.92
2018-05-24T02:56:05.386Z,980.92
2018-05-24T02:57:05.302Z,980.98
2018-05-24T02:58:05.625Z,980.95
2018-05-24T02:59:05.313Z,980.95
2018-05-24T03:00:05.047Z,980.89
2018-05-24T03:01:05.469Z,980.98
2018-05-24T03:02:05.155Z,981.03
2018-05-24T03:03:05.979Z,980.98
2018-05-24T03:04:05.158Z,981.15
2018-05-24T03:05:05.553Z,981.06
2018-05-24T03:06:05.323Z,981.06
2018-05-24T03:07:05.081Z,981.15
2018-05-24T03:08:05.145Z,980.98
2018-05-24T03:09:05.826Z,980.95
2018-05-24T03:10:05.331Z,980.89
2018-05-24T03:11:05.460Z,981.06
2018-05-24T03:12:05.341Z,981.06
2018-05-24T03:13:05.751Z,980.92
2018-05-24T03:14:05.355Z,981.01
2018-05-24T03:15:05.334Z,981.06
2018-05-24T03:16:05.962Z,980.95
2018-05-24T03:17:05.791Z,981.12
2018-05-24T03:18:05.320Z,981.04
2018-05-24T03:19:05.266Z,981.06
2018-05-24T03:20:05.791Z,981.09
2018-05-24T03:21:05.658Z,981.21
2018-05-24T03:22:05.500Z,981.24
2018-05-24T03:23:05.628Z,981.18
2018-05-24T03:24:10.754Z,981.35
2018-05-24T03:25:05.710Z,981.24
2018-05-24T03:26:05.589Z,981.33
2018-05-24T03:27:05.511Z,981.27
2018-05-24T03:28:05.611Z,981.41
2018-05-24T03:29:06.845Z,981.21
2018-05-24T03:30:05.776Z,981.27
2018-05-24T03:31:10.448Z,981.27
2018-05-24T03:32:04.982Z,981.39
2018-05-24T03:33:05.098Z,981.33
2018-05-24T03:34:05.228Z,981.30
2018-05-24T03:35:05.186Z,981.30
2018-05-24T03:36:06.703Z,981.39
2018-05-24T03:37:05.836Z,981.27
2018-05-24T03:38:05.655Z,981.39
2018-05-24T03:39:05.584Z,981.33
2018-05-24T03:40:05.937Z,981.22
2018-05-24T03:41:05.702Z,981.13
2018-05-24T03:42:05.717Z,981.22
2018-05-24T03:43:05.859Z,981.24
2018-05-24T03:44:05.481Z,981.33
2018-05-24T03:45:05.462Z,981.33
2018-05-24T03:46:05.256Z,981.27
2018-05-24T03:47:05.441Z,981.27
2018-05-24T03:48:05.539Z,981.22
2018-05-24T03:49:05.422Z,981.16
2018-05-24T03:50:05.227Z,981.16
2018-05-24T03:51:05.519Z,981.04
2018-05-24T03:52:06.042Z,981.13
2018-05-24T03:53:05.427Z,981.16
2018-05-24T03:54:05.352Z,981.22
2018-05-24T03:55:05.403Z,981.13
2018-05-24T03:56:05.363Z,981.22
2018-05-24T03:57:05.418Z,981.10
2018-05-24T03:58:05.483Z,981.22
2018-05-24T03:59:05.159Z,981.22
2018-05-24T04:00:05.124Z,981.33
2018-05-24T04:01:05.336Z,981.22
2018-05-24T04:02:05.440Z,981.36
2018-05-24T04:03:05.945Z,981.36
2018-05-24T04:04:05.421Z,981.42
2018-05-24T04:05:05.354Z,981.39
2018-05-24T04:06:05.579Z,981.33
2018-05-24T04:07:05.534Z,981.33
2018-05-24T04:08:05.890Z,981.25
2018-05-24T04:09:07.341Z,981.33
2018-05-24T04:10:05.842Z,981.25
2018-05-24T04:11:05.881Z,981.31
2018-05-24T04:12:05.486Z,981.10
2018-05-24T04:13:05.582Z,981.31
2018-05-24T04:14:05.399Z,981.28
2018-05-24T04:15:05.412Z,981.39
2018-05-24T04:16:10.925Z,981.39
2018-05-24T04:17:05.814Z,981.28
2018-05-24T04:18:05.445Z,981.31
2018-05-24T04:19:05.548Z,981.39
2018-05-24T04:20:05.451Z,981.34
2018-05-24T04:21:05.305Z,981.42
2018-05-24T04:22:11.080Z,981.45
2018-05-24T04:23:07.039Z,981.34
2018-05-24T04:24:05.816Z,981.36
2018-05-24T04:25:05.839Z,981.39
2018-05-24T04:26:05.754Z,981.34
2018-05-24T04:27:05.867Z,981.28
2018-05-24T04:28:05.003Z,981.25
2018-05-24T04:29:05.454Z,981.31
2018-05-24T04:30:05.182Z,981.31
2018-05-24T04:31:05.976Z,981.42
2018-05-24T04:32:05.097Z,981.22
2018-05-24T04:33:05.941Z,981.31
2018-05-24T04:34:05.425Z,981.42
2018-05-24T04:35:05.656Z,981.39
2018-05-24T04:36:05.398Z,981.54
2018-05-24T04:37:05.632Z,981.48
2018-05-24T04:38:05.755Z,981.42
2018-05-24T04:39:05.721Z,981.33
2018-05-24T04:40:05.457Z,981.39
2018-05-24T04:41:05.372Z,981.36
2018-05-24T04:42:05.710Z,981.36
2018-05-24T04:43:05.532Z,981.31
2018-05-24T04:44:10.109Z,981.48
2018-05-24T04:45:05.839Z,981.34
2018-05-24T04:46:05.597Z,981.28
2018-05-24T04:47:05.388Z,981.39
2018-05-24T04:48:05.641Z,981.36
2018-05-24T04:49:05.345Z,981.39
2018-05-24T04:50:05.541Z,981.34
2018-05-24T04:51:05.458Z,981.28
2018-05-24T04:52:05.755Z,981.28
2018-05-24T04:53:05.631Z,981.16
2018-05-24T04:54:05.528Z,981.37
2018-05-24T04:55:05.450Z,981.22
2018-05-24T04:56:05.402Z,981.42
2018-05-24T04:57:05.512Z,981.16
2018-05-24T04:58:05.062Z,981.31
2018-05-24T04:59:05.628Z,981.37
2018-05-24T05:00:05.183Z,981.25
2018-05-24T05:01:05.338Z,981.34
2018-05-24T05:02:05.970Z,981.37
2018-05-24T05:03:05.925Z,981.31
2018-05-24T05:04:05.380Z,981.37
2018-05-24T05:05:05.063Z,981.42
2018-05-24T05:06:04.942Z,981.28
2018-05-24T05:07:04.952Z,981.40
2018-05-24T05:08:05.243Z,981.43
2018-05-24T05:09:06.209Z,981.45
2018-05-24T05:10:05.706Z,981.42
2018-05-24T05:11:05.486Z,981.34
2018-05-24T05:12:05.521Z,981.28
2018-05-24T05:13:05.957Z,981.56
2018-05-24T05:14:05.507Z,981.45
2018-05-24T05:15:10.086Z,981.45
2018-05-24T05:16:05.548Z,981.31
2018-05-24T05:17:05.581Z,981.31
2018-05-24T05:18:06.224Z,981.45
2018-05-24T05:19:05.654Z,981.39
2018-05-24T05:20:05.416Z,981.48
2018-05-24T05:21:05.603Z,981.39
2018-05-24T05:22:05.717Z,981.39
2018-05-24T05:23:06.039Z,981.48
2018-05-24T05:24:06.094Z,981.34
2018-05-24T05:25:06.236Z,981.42
2018-05-24T05:26:05.347Z,981.33
2018-05-24T05:27:05.660Z,981.39
2018-05-24T05:28:05.795Z,981.39
2018-05-24T05:29:05.561Z,981.30
2018-05-24T05:30:05.611Z,981.45
2018-05-24T05:31:05.357Z,981.39
2018-05-24T05:32:05.134Z,981.30
2018-05-24T05:33:05.545Z,981.45
2018-05-24T05:34:05.213Z,981.45
2018-05-24T05:35:05.035Z,981.48
2018-05-24T05:36:05.644Z,981.58
2018-05-24T05:37:05.541Z,981.53
2018-05-24T05:38:05.512Z,981.56
2018-05-24T05:39:05.784Z,981.47
2018-05-24T05:40:05.808Z,981.50
2018-05-24T05:41:05.754Z,981.50
2018-05-24T05:42:05.129Z,981.58
2018-05-24T05:43:05.393Z,981.44
2018-05-24T05:44:05.379Z,981.50
2018-05-24T05:45:05.138Z,981.50
2018-05-24T05:46:05.720Z,981.50
2018-05-24T05:47:06.026Z,981.64
2018-05-24T05:48:05.735Z,981.56
2018-05-24T05:49:08.192Z,981.64
2018-05-24T05:50:06.857Z,981.58
2018-05-24T05:51:05.133Z,981.58
2018-05-24T05:52:05.872Z,981.41
2018-05-24T05:53:05.889Z,981.58
2018-05-24T05:54:06.000Z,981.53
2018-05-24T05:55:05.067Z,981.56
2018-05-24T05:56:10.163Z,981.57
2018-05-24T05:57:05.428Z,981.55
2018-05-24T05:58:06.564Z,981.69
2018-05-24T05:59:05.956Z,981.52
2018-05-24T06:00:05.221Z,981.57
2018-05-24T06:01:06.170Z,981.52
2018-05-24T06:02:06.168Z,981.49
2018-05-24T06:03:05.562Z,981.57
2018-05-24T06:04:05.593Z,981.60
2018-05-24T06:05:05.973Z,981.49
2018-05-24T06:06:05.725Z,981.60
2018-05-24T06:07:05.742Z,981.55
2018-05-24T06:08:05.903Z,981.52
2018-05-24T06:09:06.003Z,981.63
2018-05-24T06:10:05.855Z,981.57
2018-05-24T06:11:05.449Z,981.49
2018-05-24T06:12:06.025Z,981.52
2018-05-24T06:13:05.495Z,981.47
2018-05-24T06:14:05.228Z,981.49
2018-05-24T06:15:05.111Z,981.57
2018-05-24T06:16:05.540Z,981.66
2018-05-24T06:17:05.486Z,981.66
2018-05-24T06:18:05.105Z,981.41
2018-05-24T06:19:05.174Z,981.63
2018-05-24T06:20:05.093Z,981.49
2018-05-24T06:21:05.883Z,981.49
2018-05-24T06:22:05.649Z,981.49
2018-05-24T06:23:05.261Z,981.63
2018-05-24T06:24:05.437Z,981.52
2018-05-24T06:25:05.694Z,981.57
2018-05-24T06:26:10.434Z,981.60
2018-05-24T06:27:05.776Z,981.43
2018-05-24T06:28:07.001Z,981.55
2018-05-24T06:29:05.110Z,981.55
2018-05-24T06:30:05.253Z,981.55
2018-05-24T06:31:05.284Z,981.46
2018-05-24T06:32:05.945Z,981.40
2018-05-24T06:33:05.277Z,981.55
2018-05-24T06:34:05.545Z,981.52
2018-05-24T06:35:04.989Z,981.57
2018-05-24T06:36:05.729Z,981.55
2018-05-24T06:37:05.612Z,981.37
2018-05-24T06:38:05.351Z,981.46
2018-05-24T06:39:05.490Z,981.55
2018-05-24T06:40:05.770Z,981.62
2018-05-24T06:41:05.610Z,981.52
2018-05-24T06:42:05.497Z,981.59
2018-05-24T06:43:05.376Z,981.65
2018-05-24T06:44:05.253Z,981.46
2018-05-24T06:45:05.899Z,981.59
2018-05-24T06:46:05.646Z,981.65
2018-05-24T06:47:06.444Z,981.56
2018-05-24T06:48:05.494Z,981.68
2018-05-24T06:49:05.501Z,981.70
2018-05-24T06:50:06.939Z,981.62
2018-05-24T06:51:06.263Z,981.68
2018-05-24T06:52:05.254Z,981.65
2018-05-24T06:53:04.961Z,981.76
2018-05-24T06:54:05.573Z,981.70
2018-05-24T06:55:05.152Z,981.56
2018-05-24T06:56:05.815Z,981.67
2018-05-24T06:57:05.240Z,981.64
2018-05-24T06:58:05.370Z,981.79
2018-05-24T06:59:05.626Z,981.61
2018-05-24T07:00:10.214Z,981.78
2018-05-24T07:01:05.743Z,981.61
2018-05-24T07:02:05.897Z,981.67
2018-05-24T07:03:05.882Z,981.56
2018-05-24T07:04:05.411Z,981.67
2018-05-24T07:05:05.282Z,981.70
2018-05-24T07:06:05.244Z,981.72
2018-05-24T07:07:05.938Z,981.64
2018-05-24T07:08:05.791Z,981.78
2018-05-24T07:09:05.419Z,981.90
2018-05-24T07:10:05.628Z,981.81
2018-05-24T07:11:05.550Z,981.75
2018-05-24T07:12:06.236Z,981.75
2018-05-24T07:13:05.872Z,981.84
2018-05-24T07:14:05.716Z,981.75
2018-05-24T07:15:05.459Z,981.64
2018-05-24T07:16:06.392Z,981.73
2018-05-24T07:17:05.593Z,981.81
2018-05-24T07:18:05.529Z,981.67
2018-05-24T07:19:05.801Z,981.75
2018-05-24T07:20:05.761Z,981.70
2018-05-24T07:21:05.659Z,981.54
2018-05-24T07:22:05.743Z,981.64
2018-05-24T07:23:06.024Z,981.70
2018-05-24T07:24:05.072Z,981.73
2018-05-24T07:25:06.625Z,981.76
2018-05-24T07:26:05.837Z,981.64
2018-05-24T07:27:05.245Z,981.67
2018-05-24T07:28:05.134Z,981.61
2018-05-24T07:29:05.740Z,981.64
2018-05-24T07:30:05.871Z,981.73
2018-05-24T07:31:05.612Z,981.70
2018-05-24T07:32:05.958Z,981.70
2018-05-24T07:33:05.593Z,981.61
2018-05-24T07:34:05.917Z,981.56
2018-05-24T07:35:05.018Z,981.56
2018-05-24T07:36:05.345Z,981.67
2018-05-24T07:37:05.455Z,981.67
2018-05-24T07:38:05.090Z,981.61
2018-05-24T07:39:05.853Z,981.67
2018-05-24T07:40:05.701Z,981.82
2018-05-24T07:41:06.108Z,981.81
2018-05-24T07:42:06.025Z,981.79
2018-05-24T07:43:05.034Z,981.70
2018-05-24T07:44:06.002Z,981.67
2018-05-24T07:45:05.885Z,981.84
2018-05-24T07:46:05.082Z,981.84
2018-05-24T07:47:05.629Z,981.84
2018-05-24T07:48:05.907Z,981.87
2018-05-24T07:49:10.413Z,981.67
2018-05-24T07:50:05.541Z,981.95
2018-05-24T07:51:05.919Z,981.75
2018-05-24T07:52:05.604Z,981.72
2018-05-24T07:53:05.556Z,981.83
2018-05-24T07:54:05.251Z,981.80
2018-05-24T07:55:11.080Z,981.74
2018-05-24T07:56:05.034Z,981.74
2018-05-24T07:57:05.143Z,981.83
2018-05-24T07:58:06.490Z,981.83
2018-05-24T07:59:05.795Z,981.80
2018-05-24T08:00:06.049Z,981.77
2018-05-24T08:01:06.078Z,981.82
2018-05-24T08:02:06.087Z,981.82
2018-05-24T08:03:05.569Z,981.82
2018-05-24T08:04:06.141Z,981.85
2018-05-24T08:05:05.299Z,981.79
2018-05-24T08:06:06.071Z,981.68
2018-05-24T08:07:05.924Z,981.76
2018-05-24T08:08:04.986Z,981.79
2018-05-24T08:09:05.759Z,981.79
2018-05-24T08:10:05.731Z,981.79
2018-05-24T08:11:05.930Z,981.85
2018-05-24T08:12:06.325Z,981.88
2018-05-24T08:13:05.875Z,981.85
2018-05-24T08:14:05.585Z,981.82
2018-05-24T08:15:05.309Z,981.94
2018-05-24T08:16:06.663Z,981.82
2018-05-24T08:17:05.736Z,981.71
2018-05-24T08:18:05.621Z,981.74
2018-05-24T08:19:05.149Z,981.86
2018-05-24T08:20:05.911Z,981.68
2018-05-24T08:21:05.388Z,981.74
2018-05-24T08:22:05.459Z,981.86
2018-05-24T08:23:05.476Z,981.83
2018-05-24T08:24:05.799Z,981.77
2018-05-24T08:25:05.633Z,981.77
2018-05-24T08:26:05.801Z,981.83
2018-05-24T08:27:10.516Z,981.97
2018-05-24T08:28:05.933Z,981.92
2018-05-24T08:29:05.273Z,981.92
2018-05-24T08:30:05.191Z,982.00
2018-05-24T08:31:05.182Z,982.00
2018-05-24T08:32:06.162Z,982.01
2018-05-24T08:33:05.637Z,981.95
2018-05-24T08:34:05.682Z,981.95
2018-05-24T08:35:05.905Z,982.15
2018-05-24T08:36:05.871Z,982.09
2018-05-24T08:37:05.970Z,982.01
2018-05-24T08:38:05.131Z,981.98
2018-05-24T08:39:05.209Z,981.98
2018-05-24T08:40:05.398Z,982.07
2018-05-24T08:41:05.191Z,982.04
2018-05-24T08:42:05.197Z,982.04
2018-05-24T08:43:05.285Z,981.98
2018-05-24T08:44:05.461Z,982.07
2018-05-24T08:45:05.437Z,982.10
2018-05-24T08:46:05.784Z,982.18
2018-05-24T08:47:06.107Z,982.18
2018-05-24T08:48:05.089Z,982.10
2018-05-24T08:49:05.719Z,982.18
2018-05-24T08:50:05.471Z,982.15
2018-05-24T08:51:05.440Z,982.04
2018-05-24T08:52:05.363Z,982.15
2018-05-24T08:53:05.653Z,982.10
2018-05-24T08:54:10.499Z,982.01
2018-05-24T08:55:05.589Z,982.04
2018-05-24T08:56:05.931Z,981.98
2018-05-24T08:57:06.216Z,982.07
2018-05-24T08:58:05.106Z,982.04
2018-05-24T08:59:05.326Z,982.07
2018-05-24T09:00:05.406Z,982.04
2018-05-24T09:01:05.616Z,982.09
2018-05-24T09:02:05.400Z,982.18
2018-05-24T09:03:05.724Z,982.12
2018-05-24T09:04:05.533Z,982.04
2018-05-24T09:05:05.287Z,982.09
2018-05-24T09:06:05.252Z,982.01
2018-05-24T09:07:05.267Z,982.06
2018-05-24T09:08:05.830Z,982.01
2018-05-24T09:09:06.028Z,982.09
2018-05-24T09:10:05.560Z,982.06
2018-05-24T09:11:05.573Z,981.95
2018-05-24T09:12:05.472Z,982.06
2018-05-24T09:13:04.922Z,982.18
2018-05-24T09:14:05.141Z,982.09
2018-05-24T09:15:05.190Z,982.12
2018-05-24T09:16:05.738Z,982.12
2018-05-24T09:17:05.397Z,982.12
2018-05-24T09:18:06.119Z,982.00
2018-05-24T09:19:06.151Z,982.03
2018-05-24T09:20:05.921Z,982.03
2018-05-24T09:21:05.049Z,981.98
2018-05-24T09:22:05.774Z,982.18
2018-05-24T09:23:05.901Z,982.09
2018-05-24T09:24:05.710Z,982.03
2018-05-24T09:25:05.964Z,981.92
2018-05-24T09:26:05.189Z,982.12
2018-05-24T09:27:05.727Z,982.09
2018-05-24T09:28:05.341Z,982.06
2018-05-24T09:29:05.230Z,982.12
2018-05-24T09:30:05.327Z,982.09
2018-05-24T09:31:05.565Z,982.29
2018-05-24T09:32:05.188Z,982.18
2018-05-24T09:33:06.023Z,982.18
2018-05-24T09:34:05.144Z,982.06
2018-05-24T09:35:05.123Z,982.15
2018-05-24T09:36:05.280Z,982.15
2018-05-24T09:37:05.166Z,982.09
2018-05-24T09:38:06.030Z,982.15
2018-05-24T09:39:05.354Z,982.18
2018-05-24T09:40:05.559Z,982.12
2018-05-24T09:41:05.058Z,982.06
2018-05-24T09:42:10.678Z,982.09
2018-05-24T09:43:05.615Z,981.97
2018-05-24T09:44:05.570Z,981.97
2018-05-24T09:45:05.434Z,982.09
2018-05-24T09:46:05.530Z,981.97
2018-05-24T09:47:05.302Z,982.12
2018-05-24T09:48:05.720Z,982.14
2018-05-24T09:49:05.456Z,982.12
2018-05-24T09:50:05.912Z,982.17
2018-05-24T09:51:05.653Z,982.06
2018-05-24T09:52:05.397Z,982.20
2018-05-24T09:53:10.891Z,982.17
2018-05-24T09:54:05.234Z,982.20
2018-05-24T09:55:05.202Z,982.17
2018-05-24T09:56:05.644Z,982.23
2018-05-24T09:57:05.237Z,982.26
2018-05-24T09:58:05.697Z,982.23
2018-05-24T09:59:05.467Z,982.20
2018-05-24T10:00:05.574Z,982.20
2018-05-24T10:01:04.963Z,982.17
2018-05-24T10:02:07.298Z,982.26
2018-05-24T10:03:05.296Z,982.17
2018-05-24T10:04:06.309Z,982.17
2018-05-24T10:05:06.243Z,982.29
2018-05-24T10:06:05.640Z,982.26
2018-05-24T10:07:05.663Z,982.17
2018-05-24T10:08:05.794Z,982.20
2018-05-24T10:09:05.709Z,982.12
2018-05-24T10:10:07.011Z,982.09
2018-05-24T10:11:06.001Z,982.26
2018-05-24T10:12:04.964Z,982.06
2018-05-24T10:13:05.867Z,982.15
2018-05-24T10:14:05.685Z,982.24
2018-05-24T10:15:10.669Z,982.12
2018-05-24T10:16:05.676Z,982.18
2018-05-24T10:17:05.725Z,982.09
2018-05-24T10:18:05.539Z,982.15
2018-05-24T10:19:05.909Z,982.10
2018-05-24T10:20:05.944Z,982.15
2018-05-24T10:21:05.477Z,982.18
2018-05-24T10:22:05.245Z,982.04
2018-05-24T10:23:05.740Z,982.13
2018-05-24T10:24:05.877Z,982.13
2018-05-24T10:25:05.742Z,982.16
2018-05-24T10:26:05.268Z,982.16
2018-05-24T10:27:05.163Z,982.10
2018-05-24T10:28:05.619Z,982.13
2018-05-24T10:29:05.367Z,982.07
2018-05-24T10:30:05.103Z,981.93
2018-05-24T10:31:05.149Z,981.98
2018-05-24T10:32:05.248Z,982.07
2018-05-24T10:33:06.586Z,981.84
2018-05-24T10:34:05.412Z,981.96
2018-05-24T10:35:05.716Z,981.98
2018-05-24T10:36:05.923Z,982.07
2018-05-24T10:37:05.977Z,981.84
2018-05-24T10:38:05.843Z,981.96
2018-05-24T10:39:06.038Z,982.04
2018-05-24T10:40:05.778Z,982.02
2018-05-24T10:41:05.392Z,981.93
2018-05-24T10:42:05.252Z,981.90
2018-05-24T10:43:05.887Z,981.93
2018-05-24T10:44:05.413Z,981.96
2018-05-24T10:45:05.580Z,981.93
2018-05-24T10:46:05.629Z,981.87
2018-05-24T10:47:05.308Z,981.93
2018-05-24T10:48:05.434Z,981.90
2018-05-24T10:49:06.373Z,981.90
2018-05-24T10:50:06.437Z,981.99
2018-05-24T10:51:06.066Z,981.96
2018-05-24T10:52:05.855Z,982.05
2018-05-24T10:53:05.645Z,981.96
2018-05-24T10:54:05.608Z,981.96
2018-05-24T10:55:05.558Z,982.02
2018-05-24T10:56:05.114Z,981.96
2018-05-24T10:57:05.308Z,981.96
2018-05-24T10:58:05.078Z,982.05
2018-05-24T10:59:05.601Z,982.11
2018-05-24T11:00:06.351Z,982.19
2018-05-24T11:01:05.814Z,982.02
2018-05-24T11:02:05.487Z,982.14
2018-05-24T11:03:05.807Z,982.19
2018-05-24T11:04:05.927Z,982.22
2018-05-24T11:05:05.867Z,982.25
2018-05-24T11:07:10.849Z,982.11
2018-05-24T11:08:05.650Z,982.05
2018-05-24T11:09:05.337Z,982.17
2018-05-24T11:10:05.569Z,982.14
2018-05-24T11:11:05.306Z,982.11
2018-05-24T11:12:05.831Z,982.02
2018-05-24T11:13:07.131Z,982.02
2018-05-24T11:14:05.860Z,982.02
2018-05-24T11:15:05.518Z,982.05
2018-05-24T11:16:05.101Z,981.88
2018-05-24T11:17:05.152Z,981.85
2018-05-24T11:18:05.216Z,981.85
2018-05-24T11:19:05.812Z,981.85
2018-05-24T11:20:05.187Z,981.91
2018-05-24T11:21:10.374Z,981.76
2018-05-24T11:22:05.876Z,981.82
2018-05-24T11:23:05.596Z,981.79
2018-05-24T11:24:10.671Z,981.71
2018-05-24T11:25:05.660Z,981.82
2018-05-24T11:26:05.482Z,981.65
2018-05-24T11:27:06.230Z,981.74
2018-05-24T11:28:05.105Z,981.68
2018-05-24T11:29:05.681Z,981.56
2018-05-24T11:30:05.474Z,981.62
2018-05-24T11:31:05.010Z,981.68
2018-05-24T11:32:05.755Z,981.62
2018-05-24T11:33:05.995Z,981.71
2018-05-24T11:34:05.480Z,981.68
2018-05-24T11:35:05.835Z,981.59
2018-05-24T11:36:05.433Z,981.59
2018-05-24T11:37:05.359Z,981.71
2018-05-24T11:38:05.521Z,981.74
2018-05-24T11:39:05.393Z,981.65
2018-05-24T11:40:05.595Z,981.65
2018-05-24T11:41:05.554Z,981.68
2018-05-24T11:42:05.955Z,981.77
2018-05-24T11:43:05.784Z,981.80
2018-05-24T11:44:06.056Z,981.83
2018-05-24T11:45:05.665Z,981.68
2018-05-24T11:46:06.037Z,981.77
2018-05-24T11:47:05.827Z,981.68
2018-05-24T11:48:05.853Z,981.57
2018-05-24T11:49:05.830Z,981.71
2018-05-24T11:50:05.835Z,981.77
2018-05-24T11:51:05.779Z,981.59
2018-05-24T11:52:05.839Z,981.55
2018-05-24T11:53:05.480Z,981.43
2018-05-24T11:54:05.598Z,981.43
2018-05-24T11:55:06.177Z,981.57
2018-05-24T11:56:05.955Z,981.59
2018-05-24T11:57:05.871Z,981.57
2018-05-24T11:58:06.272Z,981.52
2018-05-24T11:59:05.752Z,981.62
2018-05-24T12:00:05.457Z,981.52
2018-05-24T12:01:05.029Z,981.52
2018-05-24T12:02:05.005Z,981.49
2018-05-24T12:03:05.157Z,981.55
2018-05-24T12:04:05.177Z,981.55
2018-05-24T12:05:05.204Z,981.52
2018-05-24T12:06:05.133Z,981.52
2018-05-24T12:07:05.798Z,981.52
2018-05-24T12:08:05.560Z,981.52
2018-05-24T12:09:05.697Z,981.49
2018-05-24T12:10:05.283Z,981.55
2018-05-24T12:11:05.901Z,981.46
2018-05-24T12:12:05.910Z,981.49
2018-05-24T12:13:05.696Z,981.46
2018-05-24T12:14:05.606Z,981.55
2018-05-24T12:15:05.572Z,981.43
2018-05-24T12:16:04.994Z,981.63
2018-05-24T12:17:05.845Z,981.63
2018-05-24T12:18:10.626Z,981.49
2018-05-24T12:19:06.027Z,981.49
2018-05-24T12:20:05.436Z,981.43
2018-05-24T12:21:05.075Z,981.43
2018-05-24T12:22:05.285Z,981.55
2018-05-24T12:23:05.126Z,981.32
2018-05-24T12:24:05.210Z,981.40
2018-05-24T12:25:05.438Z,981.38
2018-05-24T12:26:05.744Z,981.35
2018-05-24T12:27:05.068Z,981.40
2018-05-24T12:28:05.313Z,981.40
2018-05-24T12:29:05.463Z,981.40